createdAt,value
2022-10-21T00:00:34.360Z,15.80
2022-10-21T00:05:36.215Z,11.32
2022-10-21T00:15:44.876Z,14.80
2022-10-21T00:20:46.697Z,14.75
2022-10-21T00:25:48.712Z,14.70
2022-10-21T00:30:50.531Z,12.88
2022-10-21T00:36:02.523Z,15.38
2022-10-21T00:41:04.380Z,12.13
2022-10-21T00:46:07.939Z,12.35
2022-10-21T00:51:12.945Z,13.30
2022-10-21T00:56:24.455Z,12.32
2022-10-21T01:01:26.414Z,12.50
2022-10-21T01:06:29.236Z,14.20
2022-10-21T01:11:35.261Z,13.77
2022-10-21T01:16:56.063Z,15.70
2022-10-21T01:22:37.659Z,14.73
2022-10-21T01:33:20.945Z,17.25
2022-10-21T01:38:31.676Z,17.85
2022-10-21T01:43:50.098Z,17.40
2022-10-21T01:48:58.178Z,17.98
2022-10-21T01:54:15.563Z,17.77
2022-10-21T01:59:19.574Z,17.77
2022-10-21T02:04:23.294Z,14.38
2022-10-21T02:09:25.600Z,18.23
2022-10-21T02:14:39.986Z,18.70
2022-10-21T02:19:42.406Z,18.17
2022-10-21T02:25:01.046Z,19.55
2022-10-21T02:30:03.393Z,13.07
2022-10-21T02:35:32.211Z,19.85
2022-10-21T02:40:40.489Z,17.33
2022-10-21T02:45:42.519Z,19.10
2022-10-21T02:50:44.443Z,13.32
2022-10-21T02:55:46.240Z,16.17
2022-10-21T03:00:48.095Z,12.25
2022-10-21T03:05:50.344Z,21.75
2022-10-21T03:10:53.441Z,17.33
2022-10-21T03:15:55.649Z,23.52
2022-10-21T03:20:57.460Z,16.05
2022-10-21T03:25:59.264Z,15.75
2022-10-21T03:31:01.062Z,26.17
2022-10-21T03:36:02.959Z,17.50
2022-10-21T03:41:04.853Z,20.27
2022-10-21T03:46:06.688Z,21.30
2022-10-21T03:51:08.596Z,18.52
2022-10-21T03:56:10.466Z,21.55
2022-10-21T04:01:13.469Z,25.75
2022-10-21T04:06:15.431Z,17.30
2022-10-21T04:11:17.357Z,24.17
2022-10-21T04:16:21.199Z,17.67
2022-10-21T04:26:29.763Z,24.40
2022-10-21T04:31:32.155Z,22.20
2022-10-21T04:36:34.298Z,24.73
2022-10-21T04:41:36.255Z,18.58
2022-10-21T04:46:38.053Z,20.58
2022-10-21T04:51:39.859Z,21.40
2022-10-21T04:56:42.377Z,21.92
2022-10-21T05:01:44.251Z,17.90
2022-10-21T05:06:46.333Z,24.63
2022-10-21T05:11:48.156Z,30.10
2022-10-21T05:16:50.051Z,20.13
2022-10-21T05:21:51.922Z,21.08
2022-10-21T05:26:53.801Z,22.70
2022-10-21T05:31:55.651Z,25.80
2022-10-21T05:36:57.589Z,21.77
2022-10-21T05:41:59.515Z,25.05
2022-10-21T05:47:01.335Z,22.25
2022-10-21T05:52:03.210Z,27.00
2022-10-21T05:57:05.031Z,27.08
2022-10-21T06:02:07.003Z,22.15
2022-10-21T06:07:09.238Z,19.98
2022-10-21T06:12:11.038Z,17.42
2022-10-21T06:17:12.826Z,21.17
2022-10-21T06:22:15.027Z,20.80
2022-10-21T06:27:16.892Z,23.63
2022-10-21T06:32:18.707Z,25.75
2022-10-21T06:37:20.566Z,21.20
2022-10-21T06:42:22.353Z,24.52
2022-10-21T06:47:24.715Z,25.10
2022-10-21T06:57:33.672Z,18.65
2022-10-21T07:02:35.832Z,19.50
2022-10-21T07:07:38.445Z,20.73
2022-10-21T07:12:40.489Z,21.27
2022-10-21T07:17:42.441Z,27.30
2022-10-21T07:22:44.335Z,24.80
2022-10-21T07:27:48.547Z,21.77
2022-10-21T07:32:51.015Z,26.85
2022-10-21T07:37:52.820Z,22.25
2022-10-21T07:42:55.751Z,18.80
2022-10-21T07:47:57.632Z,18.27
2022-10-21T07:53:10.288Z,22.58
2022-10-21T07:58:14.383Z,21.65
2022-10-21T08:03:16.190Z,23.15
2022-10-21T08:08:18.075Z,27.92
2022-10-21T08:13:20.247Z,18.55
2022-10-21T08:18:22.213Z,17.70
2022-10-21T08:23:26.430Z,18.33
2022-10-21T08:28:30.454Z,18.38
2022-10-21T08:33:32.395Z,18.58
2022-10-21T08:38:34.723Z,15.98
2022-10-21T08:43:39.712Z,17.67
2022-10-21T08:48:58.643Z,20.02
2022-10-21T08:54:05.526Z,21.27
2022-10-21T08:59:33.756Z,22.67
2022-10-21T09:05:06.943Z,15.63
2022-10-21T09:10:33.759Z,15.98
2022-10-21T09:16:06.499Z,17.92
2022-10-21T09:21:29.623Z,20.48
2022-10-21T09:26:43.070Z,19.05
2022-10-21T09:31:48.732Z,19.45
2022-10-21T09:36:55.024Z,24.48
2022-10-21T09:42:00.152Z,22.33
2022-10-21T09:47:20.565Z,22.17
2022-10-21T09:52:26.175Z,22.52
2022-10-21T09:57:57.153Z,20.92
2022-10-21T10:02:59.101Z,23.98
2022-10-21T10:08:01.256Z,20.77
2022-10-21T10:13:03.223Z,23.80
2022-10-21T10:18:18.381Z,21.38
2022-10-21T10:23:20.197Z,23.70
2022-10-21T10:28:25.623Z,25.90
2022-10-21T10:33:31.799Z,19.45
2022-10-21T10:38:38.042Z,19.38
2022-10-21T10:43:54.670Z,27.83
2022-10-21T10:49:04.219Z,22.77
2022-10-21T10:54:28.400Z,17.97
2022-10-21T10:59:40.160Z,17.45
2022-10-21T11:05:12.422Z,20.13
2022-10-21T11:10:23.056Z,15.77
2022-10-21T11:15:32.594Z,16.42
2022-10-21T11:20:53.029Z,13.43
2022-10-21T11:26:03.517Z,17.45
2022-10-21T11:31:48.530Z,19.52
2022-10-21T11:37:29.448Z,11.90
2022-10-21T11:42:52.048Z,17.85
2022-10-21T11:48:12.769Z,17.08
2022-10-21T11:53:14.874Z,15.63
2022-10-21T11:58:24.651Z,18.90
2022-10-21T12:03:51.599Z,17.42
2022-10-21T12:09:02.363Z,13.27
2022-10-21T12:14:30.185Z,19.92
2022-10-21T12:19:33.206Z,18.48
2022-10-21T12:24:40.302Z,19.45
2022-10-21T12:29:42.948Z,18.27
2022-10-21T12:34:45.459Z,16.45
2022-10-21T12:39:50.564Z,19.33
2022-10-21T12:44:53.187Z,31.02
2022-10-21T12:50:29.908Z,21.73
2022-10-21T12:55:39.704Z,15.95
2022-10-21T13:00:44.555Z,21.95
2022-10-21T13:05:46.371Z,21.50
2022-10-21T13:11:03.656Z,18.27
2022-10-21T13:16:20.747Z,15.63
2022-10-21T13:21:32.458Z,17.95
2022-10-21T13:26:40.644Z,19.50
2022-10-21T13:31:42.955Z,30.58
2022-10-21T13:36:45.094Z,30.00
2022-10-21T13:41:47.821Z,23.90
2022-10-21T13:46:49.627Z,30.27
2022-10-21T13:51:53.027Z,26.65
2022-10-21T13:56:54.845Z,30.42
2022-10-21T14:01:57.983Z,29.80
2022-10-21T14:07:09.173Z,26.13
2022-10-21T14:12:43.593Z,28.38
2022-10-21T14:17:52.342Z,26.45
2022-10-21T14:22:55.740Z,24.40
2022-10-21T14:28:00.367Z,24.45
2022-10-21T14:33:04.797Z,17.17
2022-10-21T14:38:25.871Z,18.98
2022-10-21T14:43:35.552Z,13.95
2022-10-21T14:48:47.809Z,12.67
2022-10-21T14:54:02.177Z,13.48
2022-10-21T14:59:18.993Z,18.63
2022-10-21T15:04:42.614Z,12.90
2022-10-21T15:10:04.821Z,13.68
2022-10-21T15:15:48.380Z,13.73
2022-10-21T15:20:56.219Z,10.65
2022-10-21T15:26:03.687Z,9.52
2022-10-21T15:31:15.661Z,9.43
2022-10-21T15:36:19.250Z,12.38
2022-10-21T15:41:25.492Z,16.42
2022-10-21T15:46:29.484Z,13.75
2022-10-21T15:51:31.305Z,15.48
2022-10-21T15:56:33.183Z,16.08
2022-10-21T16:01:35.081Z,24.05
2022-10-21T16:06:37.007Z,11.73
2022-10-21T16:11:41.066Z,16.63
2022-10-21T16:16:47.342Z,14.45
2022-10-21T16:21:49.169Z,11.77
2022-10-21T16:26:50.979Z,14.43
2022-10-21T16:31:53.331Z,15.90
2022-10-21T16:36:55.133Z,19.10
2022-10-21T16:41:56.919Z,13.77
2022-10-21T16:46:58.823Z,17.95
2022-10-21T16:52:02.241Z,15.50
2022-10-21T16:57:06.946Z,16.80
2022-10-21T17:02:18.282Z,24.85
2022-10-21T17:07:20.098Z,10.27
2022-10-21T17:12:22.786Z,9.60
2022-10-21T17:17:24.643Z,15.75
2022-10-21T17:22:26.547Z,12.05
2022-10-21T17:27:28.358Z,10.18
2022-10-21T17:32:30.489Z,11.25
2022-10-21T17:37:32.315Z,11.60
2022-10-21T17:42:34.195Z,15.50
2022-10-21T17:47:37.030Z,21.77
2022-10-21T17:52:41.377Z,16.50
2022-10-21T17:57:44.659Z,14.02
2022-10-21T18:02:46.553Z,19.60
2022-10-21T18:07:48.375Z,15.95
2022-10-21T18:12:50.188Z,18.48
2022-10-21T18:17:52.049Z,13.25
2022-10-21T18:22:53.996Z,13.32
2022-10-21T18:27:55.830Z,14.88
2022-10-21T18:32:58.500Z,16.15
2022-10-21T18:38:00.455Z,13.65
2022-10-21T18:43:02.276Z,15.73
2022-10-21T18:48:04.484Z,13.38
2022-10-21T18:53:06.321Z,17.02
2022-10-21T18:58:08.169Z,12.23
2022-10-21T19:03:09.967Z,9.65
2022-10-21T19:08:11.790Z,17.25
2022-10-21T19:13:13.950Z,10.98
2022-10-21T19:18:15.802Z,9.45
2022-10-21T19:23:17.604Z,9.63
2022-10-21T19:28:19.443Z,10.20
2022-10-21T19:33:21.243Z,12.98
2022-10-21T19:38:39.738Z,9.10
2022-10-21T19:43:44.901Z,9.00
2022-10-21T19:48:48.141Z,7.85
2022-10-21T19:53:51.253Z,10.10
2022-10-21T19:58:53.321Z,17.30
2022-10-21T20:03:55.739Z,13.35
2022-10-21T20:09:02.671Z,9.65
2022-10-21T20:14:05.392Z,12.95
2022-10-21T20:19:07.991Z,10.60
2022-10-21T20:24:13.847Z,10.15
2022-10-21T20:29:15.767Z,9.00
2022-10-21T20:34:17.608Z,6.78
2022-10-21T20:39:19.406Z,8.43
2022-10-21T20:44:21.270Z,8.18
2022-10-21T20:49:23.079Z,9.38
2022-10-21T20:54:26.056Z,7.68
2022-10-21T20:59:27.912Z,6.18
2022-10-21T21:04:29.737Z,8.45
2022-10-21T21:10:01.038Z,9.10
2022-10-21T21:14:53.422Z,11.05
2022-10-21T21:19:55.257Z,6.30
2022-10-21T21:24:57.121Z,7.72
2022-10-21T21:29:59.068Z,28.02
2022-10-21T21:35:03.629Z,19.77
2022-10-21T21:40:08.600Z,16.17
2022-10-21T21:45:10.834Z,5.95
2022-10-21T21:50:12.663Z,10.65
2022-10-21T21:55:14.515Z,6.68
2022-10-21T22:00:16.361Z,6.78
2022-10-21T22:05:18.709Z,9.40
2022-10-21T22:10:21.331Z,4.82
2022-10-21T22:15:46.562Z,7.65
2022-10-21T22:20:45.956Z,6.32
2022-10-21T22:25:48.968Z,3.80
2022-10-21T22:31:02.619Z,7.80
2022-10-21T22:36:06.020Z,7.30
2022-10-21T22:41:12.172Z,4.43
2022-10-21T22:51:36.455Z,6.55
2022-10-21T22:56:38.360Z,5.53
2022-10-21T23:01:40.189Z,3.40
2022-10-21T23:06:42.012Z,5.15
2022-10-21T23:11:44.358Z,4.22
2022-10-21T23:16:46.184Z,3.03
2022-10-21T23:21:48.132Z,6.72
2022-10-21T23:26:49.989Z,5.55
2022-10-21T23:31:51.797Z,6.20
2022-10-21T23:36:54.172Z,5.35
2022-10-21T23:41:56.449Z,2.88
2022-10-21T23:46:58.685Z,4.50
2022-10-21T23:52:00.786Z,2.60
2022-10-21T23:57:02.640Z,7.15
